»·PEaware :: N64TZ KRNO-KSAC

N64TZ :: KRNO-KSAC

FLIGHT INFORMATION

Flight Status: Arrived
Operator: Privately registered:
United States
More flights under this callsign
Pilot: David H. (11212)
Aircraft: CESSNA 172 SKYHAWK
(C172)
More flights by this aircraft type
Origin: KRNO Reno/Tahoe Intl
United States
Destination: KSAC Sacramento Executive
United States
More flights between these airports :: More routes between these airports
Route: +RENO9 FMG V392 SAC
File this flight plan on PilotEdge
Remarks: Departure on RWY 25
Altitude:
(Current/Filed)
12,000ft
Speed:
(Current/Filed)
120kts
Departed: 28-Jun-18 03:12 PM
Arrived: 28-Jun-18 04:23 PM
Distance/Time
Traveled:
100nm/1:11
Distance/Time
To Go:
Arrived

Flight Plot

Page will automatically refresh every two minutes.

Flight plan parsing failed; only flown route is shown


Map Options




Map Legend


Flown Route
Filed Route
Departure Airport
Arrival Airport
Navaid (VOR, NDB)
Fix

Horizontal Profiles

Position Reports

Time Latitude Longitude Heading Altitude Ground
Speed
28-Jun-18 14:54 39.498110 -119.764532 0 4419ft 0kts
28-Jun-18 14:55 39.498110 -119.764532 359 4419ft 0kts
28-Jun-18 14:56 39.498110 -119.764532 359 4419ft 0kts
28-Jun-18 14:57 39.498110 -119.764532 359 4419ft 0kts
28-Jun-18 14:58 39.498110 -119.764532 359 4419ft 0kts
28-Jun-18 14:59 39.498110 -119.764532 359 4419ft 0kts
28-Jun-18 15:00 39.498110 -119.764532 359 4419ft 0kts
28-Jun-18 15:01 39.498110 -119.764532 359 4419ft 0kts
28-Jun-18 15:02 39.498110 -119.764532 359 4419ft 0kts
28-Jun-18 15:03 39.498110 -119.764532 359 4419ft 0kts
28-Jun-18 15:04 39.498110 -119.764532 359 4419ft 0kts
28-Jun-18 15:05 39.498110 -119.764532 359 4419ft 0kts
28-Jun-18 15:06 39.498110 -119.764532 359 4419ft 0kts
28-Jun-18 15:07 39.498110 -119.764532 359 4419ft 0kts
28-Jun-18 15:08 39.498001 -119.764897 214 4419ft 3kts
28-Jun-18 15:09 39.497362 -119.762904 90 4419ft 20kts
28-Jun-18 15:10 39.497216 -119.757462 145 4419ft 0kts
28-Jun-18 15:11 39.496187 -119.757645 268 4419ft 17kts
28-Jun-18 15:12 39.496164 -119.771978 277 4524ft 62kts
28-Jun-18 15:13 39.495675 -119.792794 271 4875ft 69kts
28-Jun-18 15:14 39.496027 -119.814378 293 5272ft 71kts
28-Jun-18 15:15 39.512076 -119.819179 356 5657ft 85kts
28-Jun-18 15:16 39.533715 -119.815509 357 6089ft 87kts
28-Jun-18 15:17 39.556427 -119.811699 356 6524ft 88kts
28-Jun-18 15:18 39.580232 -119.807336 356 6997ft 85kts
28-Jun-18 15:19 39.603756 -119.803154 356 7428ft 86kts
28-Jun-18 15:20 39.624123 -119.812157 317 7870ft 79kts
28-Jun-18 15:21 39.642107 -119.828564 317 8300ft 80kts
28-Jun-18 15:22 39.655090 -119.849073 277 8709ft 76kts
28-Jun-18 15:23 39.657855 -119.876297 276 9105ft 76kts
28-Jun-18 15:24 39.660964 -119.903550 276 9483ft 76kts
28-Jun-18 15:25 39.648685 -119.924891 225 9842ft 80kts
28-Jun-18 15:26 39.631688 -119.943481 227 10188ft 80kts
28-Jun-18 15:27 39.615083 -119.962661 227 10522ft 80kts
28-Jun-18 15:28 39.598145 -119.981477 226 10842ft 80kts
28-Jun-18 15:29 39.581184 -120.000266 226 11149ft 80kts
28-Jun-18 15:30 39.564335 -120.019240 227 11443ft 80kts
28-Jun-18 15:31 39.547690 -120.038396 227 11725ft 80kts
28-Jun-18 15:32 39.531048 -120.057531 228 11994ft 80kts
28-Jun-18 15:33 39.511874 -120.078956 229 12038ft 99kts
28-Jun-18 15:34 39.490384 -120.104463 228 12016ft 108kts
28-Jun-18 15:35 39.466873 -120.129152 223 12015ft 111kts
28-Jun-18 15:36 39.443473 -120.154217 229 12028ft 109kts
28-Jun-18 15:37 39.432247 -120.188326 257 12087ft 101kts
28-Jun-18 15:38 39.426294 -120.224342 258 12076ft 102kts
28-Jun-18 15:39 39.419883 -120.260120 258 12060ft 102kts
28-Jun-18 15:40 39.413550 -120.295806 256 12043ft 101kts
28-Jun-18 15:41 39.406461 -120.331122 256 12024ft 101kts
28-Jun-18 15:42 39.399397 -120.366409 256 12005ft 101kts
28-Jun-18 15:43 39.392367 -120.401743 257 11986ft 101kts
28-Jun-18 15:44 39.385373 -120.437110 257 11966ft 101kts
28-Jun-18 15:45 39.378429 -120.472436 257 11954ft 103kts
28-Jun-18 15:46 39.371417 -120.508332 257 11989ft 102kts
28-Jun-18 15:47 39.364321 -120.544844 257 11968ft 104kts
28-Jun-18 15:48 39.357309 -120.580994 257 11984ft 104kts
28-Jun-18 15:49 39.350401 -120.617084 258 12045ft 100kts
28-Jun-18 15:50 39.339316 -120.649065 224 12137ft 102kts
28-Jun-18 15:51 39.317722 -120.670780 222 12151ft 107kts
28-Jun-18 15:52 39.294014 -120.694082 222 12177ft 108kts
28-Jun-18 15:53 39.270170 -120.717535 222 12205ft 108kts
28-Jun-18 15:54 39.246481 -120.740846 222 12233ft 108kts
28-Jun-18 15:55 39.223218 -120.764987 225 12248ft 109kts
28-Jun-18 15:56 39.200144 -120.789978 225 12268ft 109kts
28-Jun-18 15:57 39.177245 -120.815089 225 12154ft 114kts
28-Jun-18 15:58 39.153143 -120.841118 223 11961ft 111kts
28-Jun-18 15:59 39.128738 -120.866511 223 11680ft 119kts
28-Jun-18 16:00 39.103252 -120.892495 221 11391ft 122kts
28-Jun-18 16:01 39.076891 -120.919029 221 11026ft 129kts
28-Jun-18 16:02 39.048602 -120.946971 219 10548ft 136kts
28-Jun-18 16:03 39.019423 -120.975572 220 10068ft 137kts
28-Jun-18 16:04 38.990239 -121.005157 220 9583ft 137kts
28-Jun-18 16:05 38.961004 -121.034345 219 9097ft 136kts
28-Jun-18 16:06 38.931412 -121.062710 219 8585ft 135kts
28-Jun-18 16:07 38.902803 -121.090752 220 7898ft 131kts
28-Jun-18 16:08 38.878374 -121.115727 220 7293ft 130kts
28-Jun-18 16:09 38.852049 -121.143097 220 6635ft 130kts
28-Jun-18 16:10 38.825414 -121.171124 220 5964ft 129kts
28-Jun-18 16:11 38.798667 -121.198869 219 5293ft 129kts
28-Jun-18 16:12 38.772186 -121.225654 219 4634ft 129kts
28-Jun-18 16:13 38.745178 -121.253222 219 3959ft 129kts
28-Jun-18 16:14 38.717694 -121.281489 222 3286ft 129kts
28-Jun-18 16:15 38.690479 -121.309398 222 2819ft 131kts
28-Jun-18 16:16 38.664403 -121.337830 225 2608ft 125kts
28-Jun-18 16:17 38.639929 -121.366568 226 2415ft 124kts
28-Jun-18 16:18 38.614417 -121.394781 224 2172ft 123kts
28-Jun-18 16:19 38.589728 -121.423910 228 1923ft 122kts
28-Jun-18 16:20 38.564363 -121.450910 218 1373ft 122kts
28-Jun-18 16:21 38.541409 -121.470257 219 704ft 83kts
28-Jun-18 16:22 38.527130 -121.482345 217 264ft 62kts
28-Jun-18 16:23 38.514555 -121.492962 202 27ft 21kts
28-Jun-18 16:24 38.513932 -121.496264 350 27ft 12kts

Navigation Log

Ident Type
Flight plan parsing failed, navigation log unavailable